首页
METAR-TAF:

METAR-TAF

机场 :

聖多美國際機場

圣多美, 圣多美和普林西比

纬度: 00-23N, 经度: 006-43E, 海拔: 8米

当前天气观测

该预报发布于1小时和4分钟前的09:00 UTC
风速4节,风向南转南东
温度 28°C
湿度 74%
气压 1013 hPa
能见度10公里或以上
少量云层高于2300英尺

METAR: FPST 160900Z 16004KT 9999 FEW023 28/23 Q1013 NOSIG

时间: 10:04 (10:04 UTC)

预报

该预报发布于12小时和4分钟前的22:00 UTC
预报有效从16日的 00点(UTC)到 17日的 06点(UTC)
风速8节,风向南转南东
能见度10公里或以上
少量云层高于2500英尺
散云层高于4000英尺
成为
在之间 SC和T0点(UTC)
多云层高于4000英尺

TAF: FPST 152200Z 1600/1706 15008KT 9999 FEW025 SCT040 BECMG SCT020 BKN040

超过4000个机场的气象观测和天气预报(METAR&TAF报告)。

可查询的气象台以黄色和红色小点在地图上表示。

将鼠标移到小点上方,可查看气象台名称。

然后点击查看天气观测和预报。

如需切换地图:点击带黑十字的绿色按钮放大地图;点击带横线的绿色按钮缩小地图;或者点击绿色箭头查看邻近地区的地图。


METAR-TAF: